Impacts METAR Board
IDs:

KIAD - Washington/Dulles In, VA, US

Updated at: 2000 UTC 02 Oct 2022
Potential Impact None Slight Moderate High
Time 02/08Z 02/09Z 02/10Z 02/11Z 02/12Z 02/13Z 02/14Z 02/15Z 02/16Z 02/17Z 02/18Z 02/19Z 02/20Z
Temp58 57 57 56 57 57 57 57 57 56 56 56 56
Dewpt57 56 55 55 55 55 55 55 54 54 53 54 54
Altim29.88 29.88 29.89 29.91 29.93 29.96 29.98 30.01 30.02 30.04 30.04 30.03 30.05
VIS7 3 10 4 2 2 2 2 3 1.75 2.5 10 3
CIG5 4 6 6 6 6 6 8 8 15 8 11 8
CoverOVCOVCOVCOVCOVCOVCOVCOVCOVCOVCOVCOVCOVC
FltCatIFRLIFRIFRIFRIFRIFRIFRIFRIFRIFRIFRMVFRIFR
WX---RA BR---RA BR-RA BR-RA BR-RA BR-RA BR-RA BRRA BR-RA BR-RA-RA BR
WDir360360101036010202030301036010
WSpd8 11 8 10 10 8 9 10 13 9 8 12 9
WGst-- -- -- -- -- -- -- 18 -- -- -- 17 16
Raw hourly METARs
KIAD 020752Z 36008KT 7SM BKN005 OVC017 14/14 A2988 RMK AO2 SLP118 T01440139
KIAD 020852Z 36011KT 3SM -RA BR OVC004 14/13 A2988 RMK AO2 RAB07 SLP118 P0000 60000 T01390133 55001
KIAD 020952Z 01008KT 10SM OVC006 14/13 A2989 RMK AO2 RAE33 SLP122 P0001 T01390128
KIAD 021052Z 01010KT 4SM -RA BR BKN006 OVC012 13/13 A2991 RMK AO2 RAB03 SLP129 P0001 T01330128
KIAD 021152Z 36010KT 2SM -RA BR BKN006 OVC015 14/13 A2993 RMK AO2 SLP135 P0002 60004 70022 T01390128 10156 20133 53017
KIAD 021252Z 01008KT 2SM -RA BR BKN006 OVC012 14/13 A2996 RMK AO2 SLP143 P0002 T01390128
KIAD 021400Z 02009KT 2SM -RA BR BKN006 OVC010 14/13 A2998 RMK AO2 P0001 T01390128
KIAD 021452Z 02010G18KT 2SM -RA BR BKN008 BKN014 OVC022 14/13 A3001 RMK AO2 SLP160 P0003 60010 T01390128 53024
KIAD 021552Z 03013KT 3SM -RA BR BKN008 OVC014 14/12 A3002 RMK AO2 SLP166 P0001 T01390122
KIAD 021652Z 03009KT 1 3/4SM RA BR FEW006 BKN015 OVC020 13/12 A3004 RMK AO2 SLP170 P0005 T01330122
KIAD 021752Z 01008KT 2 1/2SM -RA BR BKN008 OVC021 13/12 A3004 RMK AO2 SLP170 P0005 60021 T01330117 10139 20128 51010
KIAD 021859Z 36012G17KT 10SM -RA BKN011 OVC016 13/12 A3003 RMK AO2 P0000 T01330122
KIAD 021954Z 01009G16KT 3SM -RA BR BKN008 BKN013 OVC019 13/12 A3005 RMK AO2 P0000 T01330122



Page loaded:  20:32 UTC  |   01:32 PM Pacific  |   02:32 PM Mountain  |   03:32 PM Central  |   04:32 PM Eastern

 

ADVISORIES

FORECASTS

FORECASTS

OBSERVATIONS

USER TOOLS

ABOUT US